Time;durP1;ratioP1;P1;durP2;ratioP2;P2;SDS_P1;SDS_P2;PMS_P1;PMS_P2;Temp;Humidity;BMP_temperature;BMP_pressure;BME280_temperature;BME280_humidity;BME280_pressure;Samples;Min_cycle;Max_cycle;Signal;HPM_P1;HPM_P2
2023/02/10 00:01:16;;;;;;;1.10;1.10;;;-2.30;96.60;;;;;;5037016;28;20194;-70
2023/02/10 00:03:43;;;;;;;0.40;0.40;;;-2.30;96.50;;;;;;5037126;28;20258;-70
2023/02/10 00:06:09;;;;;;;0.50;0.50;;;-2.40;96.50;;;;;;5036835;28;20205;-70
2023/02/10 00:08:35;;;;;;;0.77;0.77;;;-2.30;96.70;;;;;;5037086;28;20178;-70
2023/02/10 00:11:07;;;;;;;0.70;0.70;;;-2.30;96.40;;;;;;5036905;28;20199;-70
2023/02/10 00:13:34;;;;;;;1.77;1.77;;;-2.30;96.10;;;;;;5035513;28;20958;-70
2023/02/10 00:16:04;;;;;;;0.50;0.50;;;-2.40;96.10;;;;;;5035452;28;20198;-69
2023/02/10 00:18:30;;;;;;;1.67;1.25;;;-2.50;96.20;;;;;;5035632;28;20163;-69
2023/02/10 00:20:56;;;;;;;0.50;0.50;;;-2.50;96.60;;;;;;5035425;28;20218;-70
2023/02/10 00:23:22;;;;;;;6.88;2.05;;;-2.50;96.90;;;;;;5035629;28;20221;-70
2023/02/10 00:25:48;;;;;;;0.50;0.50;;;-2.40;96.80;;;;;;5035244;28;20183;-70
2023/02/10 00:28:14;;;;;;;0.80;0.80;;;-2.40;97.20;;;;;;5035296;28;20464;-70
2023/02/10 00:30:39;;;;;;;0.50;0.50;;;-2.40;97.00;;;;;;5035411;28;20187;-70
2023/02/10 00:33:05;;;;;;;1.00;1.00;;;-2.50;96.90;;;;;;5035443;28;20218;-70
2023/02/10 00:35:32;;;;;;;1.98;1.98;;;-2.50;96.70;;;;;;5035252;28;20695;-70
2023/02/10 00:37:57;;;;;;;0.40;0.40;;;-2.40;96.70;;;;;;5035400;28;20171;-70
2023/02/10 00:40:23;;;;;;;1.93;1.90;;;-2.50;96.70;;;;;;5035331;28;20646;-70
2023/02/10 00:42:48;;;;;;;0.50;0.50;;;-2.60;96.70;;;;;;5035170;28;20185;-70
2023/02/10 00:45:14;;;;;;;0.60;0.60;;;-2.50;96.80;;;;;;5035369;28;20253;-70
2023/02/10 00:47:40;;;;;;;3.13;2.97;;;-2.50;96.80;;;;;;5035170;28;20198;-70
2023/02/10 00:50:06;;;;;;;0.70;0.70;;;-2.50;96.90;;;;;;5035147;28;20180;-70
2023/02/10 00:52:31;;;;;;;0.30;0.30;;;-2.50;97.10;;;;;;5035064;28;20182;-70
2023/02/10 00:54:57;;;;;;;0.50;0.50;;;-2.50;97.30;;;;;;5034503;28;20167;-70
2023/02/10 00:57:23;;;;;;;0.50;0.50;;;-2.40;97.30;;;;;;5035069;28;20199;-70
2023/02/10 00:59:48;;;;;;;0.43;0.43;;;-2.30;97.40;;;;;;5034939;28;20588;-70
2023/02/10 01:02:14;;;;;;;0.50;0.50;;;-2.20;96.70;;;;;;5034778;28;20337;-70
2023/02/10 01:04:40;;;;;;;2.70;2.10;;;-2.10;96.50;;;;;;5034770;28;20175;-69
2023/02/10 01:07:05;;;;;;;2.50;2.10;;;-2.20;96.40;;;;;;5034911;28;20205;-70
2023/02/10 01:09:31;;;;;;;1.17;1.13;;;-2.20;96.60;;;;;;5033643;28;20174;-70
2023/02/10 01:11:57;;;;;;;0.80;0.80;;;-2.10;96.60;;;;;;4995697;28;1126826;-70
2023/02/10 01:14:23;;;;;;;0.70;0.70;;;-2.10;96.20;;;;;;5035709;28;20654;-70
2023/02/10 01:16:49;;;;;;;0.70;0.70;;;-2.10;96.00;;;;;;5035879;28;20175;-70
2023/02/10 01:19:15;;;;;;;3.27;3.07;;;-2.10;96.00;;;;;;5035578;28;20186;-70
2023/02/10 01:21:41;;;;;;;1.27;1.27;;;-2.20;96.00;;;;;;5034279;28;20651;-70
2023/02/10 01:24:07;;;;;;;1.20;1.10;;;-2.30;96.20;;;;;;5035555;28;20504;-69
2023/02/10 01:26:33;;;;;;;1.80;1.50;;;-2.30;96.60;;;;;;5035308;28;20484;-70
2023/02/10 01:28:59;;;;;;;0.52;0.52;;;-2.20;96.60;;;;;;5035678;28;20404;-70
2023/02/10 01:31:25;;;;;;;0.80;0.80;;;-2.20;96.40;;;;;;5035392;28;20249;-70
2023/02/10 01:33:53;;;;;;;1.43;0.90;;;-2.20;96.40;;;;;;5035513;28;20171;-70
2023/02/10 01:36:21;;;;;;;3.65;3.45;;;-2.30;96.40;;;;;;5035049;28;20651;-70
2023/02/10 01:38:47;;;;;;;3.05;1.17;;;-2.50;96.50;;;;;;5033998;28;20183;-70
2023/02/10 01:41:15;;;;;;;0.52;0.52;;;-2.40;96.80;;;;;;5033944;28;20635;-70
2023/02/10 01:44:19;;;;;;;1.10;1.10;;;-2.50;96.90;;;;;;5035292;28;20677;-70
2023/02/10 01:46:44;;;;;;;6.60;1.88;;;-2.30;96.80;;;;;;5024874;28;20241;-70
2023/02/10 01:49:15;;;;;;;0.60;0.60;;;-2.30;96.90;;;;;;5035289;28;20171;-69
2023/02/10 01:51:59;;;;;;;0.88;0.88;;;-2.20;96.90;;;;;;5035107;28;20179;-70
2023/02/10 01:54:33;;;;;;;2.00;1.98;;;-2.20;96.80;;;;;;5033760;28;20526;-70
2023/02/10 01:57:00;;;;;;;2.25;2.15;;;-2.30;96.90;;;;;;5035151;28;20175;-69
2023/02/10 01:59:30;;;;;;;0.63;0.63;;;-2.30;96.70;;;;;;5035056;28;20261;-69
2023/02/10 02:01:56;;;;;;;2.25;2.15;;;-2.50;96.80;;;;;;5035232;28;20186;-69
2023/02/10 02:04:22;;;;;;;0.60;0.60;;;-2.60;96.40;;;;;;5034687;28;20173;-70
2023/02/10 02:06:48;;;;;;;0.60;0.60;;;-2.60;96.50;;;;;;5034155;28;20202;-70
2023/02/10 02:09:14;;;;;;;26.38;2.13;;;-2.70;96.70;;;;;;5034755;28;20163;-70
2023/02/10 02:12:01;;;;;;;2.70;2.60;;;-2.60;97.10;;;;;;5034468;28;20568;-70
2023/02/10 02:14:52;;;;;;;2.17;2.00;;;-2.60;97.20;;;;;;5033222;28;20417;-70
2023/02/10 02:18:06;;;;;;;2.17;2.17;;;-2.70;97.00;;;;;;5034707;28;20231;-69
2023/02/10 02:20:52;;;;;;;1.80;1.67;;;-2.70;96.90;;;;;;5034917;28;20610;-69
2023/02/10 02:23:34;;;;;;;3.78;3.63;;;-2.70;97.10;;;;;;5034705;28;20182;-69
2023/02/10 02:26:08;;;;;;;1.95;1.85;;;-2.70;97.20;;;;;;5034388;28;20171;-70
2023/02/10 02:29:13;;;;;;;1.33;1.23;;;-2.60;97.10;;;;;;5034541;28;20245;-69
2023/02/10 02:31:49;;;;;;;2.20;2.05;;;-2.70;97.20;;;;;;5034349;28;20610;-69
2023/02/10 02:34:22;;;;;;;1.67;1.58;;;-2.60;97.30;;;;;;5033094;28;20178;-69
2023/02/10 02:37:03;;;;;;;0.88;0.88;;;-2.50;97.40;;;;;;5034394;28;20539;-69
2023/02/10 02:39:29;;;;;;;1.05;0.80;;;-2.50;97.40;;;;;;5034409;28;20632;-69
2023/02/10 02:42:18;;;;;;;2.20;2.10;;;-2.50;97.40;;;;;;5034113;28;20205;-70
2023/02/10 02:44:47;;;;;;;1.00;1.00;;;-2.60;97.50;;;;;;5034099;28;20754;-70
2023/02/10 02:47:30;;;;;;;1.23;1.13;;;-2.50;97.60;;;;;;5034064;28;20297;-70
2023/02/10 02:50:27;;;;;;;3.85;3.65;;;-2.50;97.70;;;;;;5034104;28;20174;-69
2023/02/10 02:53:10;;;;;;;1.48;1.48;;;-2.60;97.30;;;;;;5033933;28;20167;-69
2023/02/10 02:55:54;;;;;;;0.80;0.80;;;-2.70;96.90;;;;;;5033716;28;20639;-70
2023/02/10 02:58:34;;;;;;;1.77;1.67;;;-2.80;96.60;;;;;;5033885;28;20179;-69
2023/02/10 03:01:05;;;;;;;0.40;0.40;;;-2.90;96.60;;;;;;5033771;28;20652;-70
2023/02/10 03:03:35;;;;;;;0.85;0.85;;;-2.80;96.60;;;;;;5032317;28;20708;-69
2023/02/10 03:06:02;;;;;;;1.85;1.75;;;-2.80;96.70;;;;;;5032219;28;20266;-70
2023/02/10 03:08:31;;;;;;;0.40;0.40;;;-2.90;96.70;;;;;;5032385;28;20251;-69
2023/02/10 03:10:56;;;;;;;0.80;0.80;;;-2.90;96.80;;;;;;5033843;28;20182;-70
2023/02/10 03:13:22;;;;;;;0.70;0.70;;;-2.90;96.60;;;;;;5033682;28;20198;-69
2023/02/10 03:15:48;;;;;;;0.40;0.40;;;-3.00;96.70;;;;;;5033641;28;20257;-69
2023/02/10 03:18:14;;;;;;;4.07;1.48;;;-3.00;97.10;;;;;;5033544;28;20178;-69
2023/02/10 03:20:40;;;;;;;0.75;0.75;;;-3.00;97.20;;;;;;5033370;28;20210;-69
2023/02/10 03:23:06;;;;;;;0.40;0.40;;;-3.00;97.10;;;;;;5032248;28;20175;-69
2023/02/10 03:25:32;;;;;;;0.40;0.40;;;-3.10;96.90;;;;;;5033253;28;20500;-69
2023/02/10 03:27:58;;;;;;;0.60;0.60;;;-3.20;96.70;;;;;;5033340;28;20583;-69
2023/02/10 03:30:24;;;;;;;1.37;1.37;;;-3.10;96.80;;;;;;5033292;28;20656;-69
2023/02/10 03:32:53;;;;;;;0.88;0.88;;;-3.00;96.70;;;;;;5034019;28;20173;-69
2023/02/10 03:35:19;;;;;;;0.85;0.85;;;-3.00;96.60;;;;;;5033268;28;20175;-70
2023/02/10 03:37:44;;;;;;;1.73;1.65;;;-3.00;96.60;;;;;;5033255;28;20628;-69
2023/02/10 03:40:10;;;;;;;0.60;0.60;;;-3.00;96.60;;;;;;5032031;28;20186;-69
2023/02/10 03:42:36;;;;;;;3.50;1.88;;;-3.00;96.50;;;;;;5033467;28;20632;-69
2023/02/10 03:45:02;;;;;;;0.40;0.40;;;-3.00;96.40;;;;;;5033159;28;20221;-69
2023/02/10 03:47:27;;;;;;;0.67;0.67;;;-2.90;96.60;;;;;;5033430;28;20202;-69
2023/02/10 03:49:53;;;;;;;0.90;0.90;;;-3.00;96.70;;;;;;5032035;28;20532;-70
2023/02/10 03:52:18;;;;;;;1.87;1.77;;;-2.90;96.80;;;;;;5033192;28;20179;-69
2023/02/10 03:54:44;;;;;;;0.50;0.50;;;-2.90;96.80;;;;;;5033063;28;20175;-69
2023/02/10 03:57:11;;;;;;;15.03;2.77;;;-3.00;96.80;;;;;;5033283;28;20246;-70
2023/02/10 03:59:36;;;;;;;1.25;1.15;;;-3.00;96.90;;;;;;5033303;28;20221;-69
2023/02/10 04:02:02;;;;;;;0.40;0.40;;;-3.10;96.60;;;;;;5033038;28;20679;-69
2023/02/10 04:04:28;;;;;;;1.70;1.60;;;-3.10;96.80;;;;;;5031869;28;20209;-69
2023/02/10 04:06:54;;;;;;;1.07;1.07;;;-3.20;96.70;;;;;;5032965;28;20972;-69
2023/02/10 04:09:20;;;;;;;6.70;2.23;;;-3.20;96.70;;;;;;5033075;28;20406;-69
2023/02/10 04:11:45;;;;;;;0.50;0.50;;;-3.10;96.80;;;;;;5032852;28;20448;-70
2023/02/10 04:14:11;;;;;;;1.23;1.23;;;-3.10;96.70;;;;;;5033165;28;20410;-69
2023/02/10 04:16:37;;;;;;;0.83;0.83;;;-3.00;96.80;;;;;;5032934;28;20211;-69
2023/02/10 04:19:02;;;;;;;0.50;0.50;;;-3.10;96.70;;;;;;5033091;28;20197;-69
2023/02/10 04:21:28;;;;;;;0.53;0.53;;;-3.10;96.50;;;;;;5032810;28;20194;-70
2023/02/10 04:23:55;;;;;;;1.00;1.00;;;-3.20;96.30;;;;;;5032898;28;20500;-69
2023/02/10 04:26:21;;;;;;;2.13;2.03;;;-3.30;96.20;;;;;;5031513;28;20735;-70
2023/02/10 04:28:48;;;;;;;1.77;1.77;;;-3.30;96.40;;;;;;5031719;28;20174;-69
2023/02/10 04:31:14;;;;;;;3.00;1.80;;;-3.20;96.70;;;;;;5034925;28;20195;-69
2023/02/10 04:33:39;;;;;;;1.23;1.23;;;-3.20;96.90;;;;;;5036459;28;20177;-69
2023/02/10 04:36:06;;;;;;;1.90;1.90;;;-3.10;97.20;;;;;;5036433;28;20464;-69
2023/02/10 04:38:31;;;;;;;1.20;1.20;;;-3.00;97.40;;;;;;5036582;28;20566;-69
2023/02/10 04:40:57;;;;;;;0.70;0.70;;;-3.00;97.40;;;;;;5036257;28;20252;-70
2023/02/10 04:43:22;;;;;;;5.73;1.30;;;-3.00;97.10;;;;;;5036318;28;20565;-69
2023/02/10 04:45:48;;;;;;;0.47;0.47;;;-3.00;96.90;;;;;;5034804;28;20190;-69
2023/02/10 04:48:14;;;;;;;2.40;2.20;;;-3.00;96.70;;;;;;5036322;28;20195;-69
2023/02/10 04:50:40;;;;;;;2.83;1.48;;;-3.10;96.50;;;;;;5036295;28;20187;-70
2023/02/10 04:53:06;;;;;;;1.07;0.97;;;-3.20;96.50;;;;;;5036239;28;20213;-69
2023/02/10 04:55:33;;;;;;;0.75;0.75;;;-3.30;96.50;;;;;;5035996;28;20890;-69
2023/02/10 04:58:00;;;;;;;1.30;1.30;;;-3.30;96.70;;;;;;5036213;28;20194;-69
2023/02/10 05:00:25;;;;;;;0.90;0.90;;;-3.30;96.70;;;;;;5036102;28;20193;-69
2023/02/10 05:02:51;;;;;;;1.03;1.03;;;-3.20;96.70;;;;;;5035863;28;20178;-69
2023/02/10 05:05:17;;;;;;;3.53;3.33;;;-3.10;96.50;;;;;;5035672;28;20577;-69
2023/02/10 05:07:43;;;;;;;0.70;0.70;;;-3.20;96.40;;;;;;5035823;28;20234;-69
2023/02/10 05:10:08;;;;;;;2.43;2.23;;;-3.20;96.40;;;;;;5035784;28;20707;-69
2023/02/10 05:12:34;;;;;;;5.53;3.67;;;-3.20;96.30;;;;;;5035644;28;20266;-69
2023/02/10 05:15:00;;;;;;;2.77;2.67;;;-3.30;96.10;;;;;;5035662;28;20519;-69
2023/02/10 05:17:25;;;;;;;0.60;0.60;;;-3.20;96.10;;;;;;5035699;28;20625;-69
2023/02/10 05:19:51;;;;;;;0.60;0.60;;;-3.30;96.40;;;;;;5035850;28;20163;-69
2023/02/10 05:22:16;;;;;;;0.63;0.63;;;-3.30;96.70;;;;;;5035508;28;20194;-69
2023/02/10 05:24:42;;;;;;;0.70;0.70;;;-3.30;97.20;;;;;;5035726;28;20171;-69
2023/02/10 05:27:08;;;;;;;1.43;1.33;;;-3.10;97.40;;;;;;5035712;28;20195;-69
2023/02/10 05:29:34;;;;;;;1.17;1.17;;;-3.00;97.40;;;;;;5035424;28;20171;-69
2023/02/10 05:32:00;;;;;;;0.77;0.77;;;-3.00;97.50;;;;;;5035592;28;20516;-69
2023/02/10 05:34:26;;;;;;;1.83;1.77;;;-3.00;97.30;;;;;;5035216;28;20312;-69
2023/02/10 05:36:52;;;;;;;0.85;0.85;;;-3.10;96.90;;;;;;5035383;28;20758;-70
2023/02/10 05:39:24;;;;;;;0.70;0.70;;;-3.10;96.60;;;;;;5035303;28;20191;-69
2023/02/10 05:41:50;;;;;;;1.30;1.30;;;-3.20;96.30;;;;;;5034200;28;20195;-69
2023/02/10 05:44:16;;;;;;;1.85;1.85;;;-3.30;96.30;;;;;;5035241;28;20240;-69
2023/02/10 05:46:42;;;;;;;0.70;0.70;;;-3.30;96.40;;;;;;5034897;28;20194;-70
2023/02/10 05:49:07;;;;;;;0.50;0.50;;;-3.30;96.30;;;;;;5035537;28;20171;-69
2023/02/10 05:51:33;;;;;;;1.53;1.43;;;-3.20;96.30;;;;;;5035021;28;20534;-69
2023/02/10 05:53:59;;;;;;;2.13;2.03;;;-3.20;96.30;;;;;;5035099;28;20632;-69
2023/02/10 05:56:24;;;;;;;0.97;0.97;;;-3.10;96.30;;;;;;5034977;28;20163;-69
2023/02/10 05:58:50;;;;;;;0.70;0.70;;;-3.00;96.40;;;;;;5035088;28;20537;-69
2023/02/10 06:01:15;;;;;;;0.90;0.90;;;-3.00;96.40;;;;;;5033485;28;20206;-69
2023/02/10 06:03:41;;;;;;;0.40;0.40;;;-3.10;96.30;;;;;;5035051;28;20167;-69
2023/02/10 06:06:07;;;;;;;3.33;3.13;;;-3.10;96.40;;;;;;5034713;28;20166;-69
2023/02/10 06:08:32;;;;;;;0.67;0.67;;;-3.20;96.50;;;;;;5034567;28;20278;-70
2023/02/10 06:10:58;;;;;;;2.93;2.83;;;-3.20;96.80;;;;;;5034561;28;20667;-69
2023/02/10 06:13:24;;;;;;;1.13;0.80;;;-3.10;97.20;;;;;;5034548;28;20183;-69
2023/02/10 06:15:50;;;;;;;3.30;0.90;;;-3.10;97.30;;;;;;5034416;28;20167;-69
2023/02/10 06:18:15;;;;;;;0.40;0.40;;;-3.00;97.10;;;;;;5034504;28;20405;-69
2023/02/10 06:20:41;;;;;;;0.80;0.80;;;-3.00;97.00;;;;;;5034429;28;20682;-69
2023/02/10 06:23:07;;;;;;;2.50;2.40;;;-3.10;96.70;;;;;;5033162;28;20180;-69
2023/02/10 06:25:33;;;;;;;0.50;0.50;;;-3.20;96.50;;;;;;5034133;28;20655;-69
2023/02/10 06:27:59;;;;;;;0.40;0.40;;;-3.20;96.50;;;;;;5034444;28;20193;-69
2023/02/10 06:30:25;;;;;;;0.93;0.93;;;-3.20;96.60;;;;;;5034258;28;20594;-69
2023/02/10 06:32:50;;;;;;;0.40;0.40;;;-3.20;96.50;;;;;;5034434;28;20167;-69
2023/02/10 06:35:16;;;;;;;5.30;1.10;;;-3.10;96.40;;;;;;5034190;28;20225;-69
2023/02/10 06:37:42;;;;;;;2.60;2.40;;;-3.10;96.40;;;;;;5034302;28;20202;-70
2023/02/10 06:40:08;;;;;;;0.40;0.40;;;-3.10;96.40;;;;;;5033993;28;20220;-69
2023/02/10 06:42:34;;;;;;;0.47;0.47;;;-3.20;96.40;;;;;;5034150;28;20171;-70
2023/02/10 06:44:59;;;;;;;0.60;0.60;;;-3.10;96.40;;;;;;5033988;28;20182;-69
2023/02/10 06:47:25;;;;;;;1.07;1.07;;;-3.10;96.40;;;;;;5032649;28;20207;-69
2023/02/10 06:49:51;;;;;;;3.53;3.13;;;-3.10;96.30;;;;;;5034223;28;20170;-69
2023/02/10 06:52:17;;;;;;;1.63;1.53;;;-3.10;96.30;;;;;;5033852;28;20903;-69
2023/02/10 06:54:42;;;;;;;0.50;0.50;;;-3.10;96.20;;;;;;5032206;28;20219;-69
2023/02/10 06:57:08;;;;;;;0.60;0.60;;;-2.90;96.00;;;;;;5033748;28;20547;-70
2023/02/10 06:59:34;;;;;;;1.67;1.53;;;-2.90;95.70;;;;;;5033931;28;20758;-70
2023/02/10 07:02:02;;;;;;;2.00;1.90;;;-3.00;95.80;;;;;;5033652;28;20190;-69
2023/02/10 07:04:29;;;;;;;3.05;2.03;;;-2.90;95.90;;;;;;5033556;28;20408;-69
2023/02/10 07:06:56;;;;;;;2.38;2.28;;;-2.90;96.00;;;;;;5033807;28;20217;-70
2023/02/10 07:09:22;;;;;;;0.50;0.50;;;-2.90;96.30;;;;;;5033601;28;20170;-69
2023/02/10 07:11:48;;;;;;;1.05;1.05;;;-2.90;96.50;;;;;;5033570;28;20229;-69
2023/02/10 07:14:13;;;;;;;1.10;1.10;;;-2.80;96.70;;;;;;5033599;28;20194;-69
2023/02/10 07:16:39;;;;;;;0.93;0.93;;;-2.60;96.80;;;;;;5033442;28;20178;-69
2023/02/10 07:19:05;;;;;;;3.10;2.20;;;-2.60;96.90;;;;;;5033627;28;20200;-69
2023/02/10 07:21:30;;;;;;;4.90;1.73;;;-2.50;97.20;;;;;;5033668;28;20919;-69
2023/02/10 07:23:56;;;;;;;3.20;2.93;;;-2.30;97.00;;;;;;5033690;28;20253;-69
2023/02/10 07:26:22;;;;;;;1.07;1.07;;;-2.30;96.70;;;;;;5033378;28;20167;-69
2023/02/10 07:28:47;;;;;;;1.47;1.47;;;-2.20;96.80;;;;;;5033455;28;20175;-69
2023/02/10 07:31:13;;;;;;;1.23;1.23;;;-2.20;96.70;;;;;;5033768;28;20182;-69
2023/02/10 07:33:39;;;;;;;0.60;0.60;;;-2.30;96.10;;;;;;5033507;28;20577;-69
2023/02/10 07:36:05;;;;;;;0.77;0.77;;;-2.30;96.10;;;;;;5033407;28;20433;-68
2023/02/10 07:38:31;;;;;;;0.40;0.40;;;-2.20;96.00;;;;;;5033378;28;20265;-69
2023/02/10 07:40:57;;;;;;;1.05;1.02;;;-2.30;95.80;;;;;;5033340;28;20206;-69
2023/02/10 07:43:23;;;;;;;2.45;2.25;;;-2.20;95.70;;;;;;5033292;28;20208;-71
2023/02/10 07:45:50;;;;;;;0.40;0.40;;;-2.10;95.50;;;;;;5033093;28;20183;-72
2023/02/10 07:48:16;;;;;;;0.30;0.30;;;-2.00;95.40;;;;;;5033276;28;20483;-71
2023/02/10 07:50:43;;;;;;;0.40;0.40;;;-2.00;95.60;;;;;;5033109;28;20231;-71
2023/02/10 07:53:08;;;;;;;0.90;0.90;;;-1.90;95.80;;;;;;5032487;28;20174;-70
2023/02/10 07:55:37;;;;;;;0.83;0.83;;;-1.70;96.50;;;;;;5033222;28;20179;-69
2023/02/10 07:58:03;;;;;;;3.75;1.83;;;-0.70;99.60;;;;;;5033528;28;20222;-70
2023/02/10 08:00:29;;;;;;;0.47;0.47;;;1.00;99.90;;;;;;5031011;28;20899;-72
2023/02/10 08:02:54;;;;;;;1.20;1.20;;;2.90;99.90;;;;;;5033544;28;20179;-73
2023/02/10 08:05:21;;;;;;;5.73;4.27;;;4.40;99.90;;;;;;5033805;28;20229;-71
2023/02/10 08:07:47;;;;;;;9.02;8.25;;;5.60;97.50;;;;;;5037588;28;20263;-73
2023/02/10 08:10:12;;;;;;;2.47;2.10;;;6.60;93.10;;;;;;5037395;28;20167;-72
2023/02/10 08:12:38;;;;;;;5.83;4.20;;;7.50;87.80;;;;;;5036955;28;20426;-72
2023/02/10 08:15:05;;;;;;;2.50;2.40;;;8.40;76.80;;;;;;5036713;28;20171;-74
2023/02/10 08:17:31;;;;;;;2.23;2.13;;;9.10;70.50;;;;;;5037212;28;20163;-73
2023/02/10 08:19:56;;;;;;;4.37;3.97;;;10.00;65.60;;;;;;5037172;28;20455;-73
2023/02/10 08:22:22;;;;;;;4.60;2.43;;;10.70;58.10;;;;;;5036752;28;20171;-71
2023/02/10 08:24:48;;;;;;;7.63;5.40;;;11.40;54.80;;;;;;5036621;28;20174;-74
2023/02/10 08:27:14;;;;;;;1.77;1.30;;;12.10;53.50;;;;;;5036728;28;20262;-75
2023/02/10 08:29:39;;;;;;;3.27;2.97;;;12.80;51.90;;;;;;5036485;28;20175;-75
2023/02/10 08:32:05;;;;;;;5.07;2.93;;;13.50;49.20;;;;;;5036123;28;20417;-73
2023/02/10 08:34:31;;;;;;;5.73;2.40;;;14.00;47.30;;;;;;5036752;28;20180;-71
2023/02/10 08:36:57;;;;;;;5.53;2.97;;;14.80;46.60;;;;;;5035907;28;20172;-72
2023/02/10 08:39:22;;;;;;;3.17;2.47;;;15.60;45.40;;;;;;5037061;28;20401;-72
2023/02/10 08:41:48;;;;;;;3.30;3.10;;;16.40;43.30;;;;;;5036870;28;20544;-71
2023/02/10 08:44:14;;;;;;;4.67;4.27;;;16.90;41.70;;;;;;5036620;28;20517;-71
2023/02/10 08:46:40;;;;;;;2.83;2.63;;;17.20;40.20;;;;;;5036396;28;20200;-72
2023/02/10 08:49:06;;;;;;;2.27;2.07;;;17.10;39.80;;;;;;5036273;28;20168;-70
2023/02/10 08:51:32;;;;;;;2.80;2.67;;;17.30;39.40;;;;;;5035488;28;20488;-72
2023/02/10 08:54:00;;;;;;;2.40;2.20;;;17.10;39.10;;;;;;5034125;28;20408;-73
2023/02/10 08:56:26;;;;;;;5.20;2.27;;;17.00;39.40;;;;;;5035828;28;20397;-72
2023/02/10 08:58:52;;;;;;;4.13;3.77;;;16.70;39.60;;;;;;5036299;28;20424;-73
2023/02/10 09:01:25;;;;;;;8.40;5.90;;;16.60;40.10;;;;;;5034884;28;20569;-73
2023/02/10 09:03:52;;;;;;;4.37;3.97;;;16.40;39.50;;;;;;5035603;28;20170;-73
2023/02/10 09:06:38;;;;;;;2.57;2.37;;;16.20;39.40;;;;;;5035644;28;20418;-72
2023/02/10 09:09:06;;;;;;;4.10;3.07;;;15.80;39.50;;;;;;5036107;28;20413;-72
2023/02/10 09:11:31;;;;;;;7.13;2.70;;;15.60;40.20;;;;;;5035916;28;20518;-71
2023/02/10 09:13:57;;;;;;;2.10;2.00;;;15.50;41.20;;;;;;5036352;28;20898;-72
2023/02/10 09:16:23;;;;;;;1.80;1.70;;;15.80;41.40;;;;;;5035848;28;20170;-70
2023/02/10 09:18:49;;;;;;;2.33;2.13;;;16.40;40.90;;;;;;5035835;28;20208;-73
2023/02/10 09:21:14;;;;;;;2.50;1.90;;;17.10;39.70;;;;;;5034638;28;20535;-73
2023/02/10 09:23:40;;;;;;;2.50;1.47;;;17.80;38.80;;;;;;5036208;28;20177;-71
2023/02/10 09:26:07;;;;;;;0.80;0.80;;;18.40;37.80;;;;;;5035584;28;20163;-74
2023/02/10 09:28:33;;;;;;;0.90;0.90;;;19.10;37.70;;;;;;5034293;28;20220;-74
2023/02/10 09:30:59;;;;;;;2.10;1.90;;;19.70;35.90;;;;;;5035560;28;20430;-74
2023/02/10 09:33:25;;;;;;;1.70;1.60;;;20.20;35.30;;;;;;5035392;28;20898;-72
2023/02/10 09:35:51;;;;;;;3.10;2.30;;;20.60;35.00;;;;;;5035174;28;20229;-72
2023/02/10 09:38:16;;;;;;;1.63;1.43;;;21.00;34.10;;;;;;5035389;28;20171;-73
2023/02/10 09:41:10;;;;;;;1.50;1.40;;;21.20;33.10;;;;;;5034549;28;20187;-72
2023/02/10 09:43:41;;;;;;;1.20;1.10;;;21.30;33.20;;;;;;5035545;28;20167;-71
2023/02/10 09:46:22;;;;;;;3.23;1.80;;;21.20;33.20;;;;;;5035013;28;20496;-73
2023/02/10 09:49:26;;;;;;;1.70;1.60;;;21.40;32.70;;;;;;5035214;28;20394;-72
2023/02/10 09:52:11;;;;;;;1.67;1.33;;;21.60;32.80;;;;;;5035107;28;20429;-74
2023/02/10 09:54:37;;;;;;;1.57;1.10;;;21.80;32.30;;;;;;5034114;28;20402;-75
2023/02/10 09:57:16;;;;;;;1.43;1.33;;;22.10;32.00;;;;;;5035017;28;20533;-74
2023/02/10 09:59:43;;;;;;;1.43;1.33;;;22.30;31.70;;;;;;5035304;28;20409;-75
2023/02/10 10:02:34;;;;;;;1.27;1.27;;;21.90;31.20;;;;;;5035379;28;20445;-74
2023/02/10 10:05:12;;;;;;;1.90;1.57;;;21.50;31.20;;;;;;5031429;28;20422;-74
2023/02/10 10:07:43;;;;;;;1.60;1.50;;;21.40;32.00;;;;;;5035104;28;20453;-74
2023/02/10 10:10:24;;;;;;;1.63;1.13;;;21.40;31.90;;;;;;5033755;28;20384;-74
2023/02/10 10:12:50;;;;;;;1.17;1.17;;;21.20;31.80;;;;;;5034699;28;20425;-74
2023/02/10 10:15:17;;;;;;;2.90;1.80;;;21.10;31.70;;;;;;5033163;28;20821;-72
2023/02/10 10:18:08;;;;;;;2.70;0.93;;;20.50;32.60;;;;;;5034521;28;20175;-73
2023/02/10 10:20:51;;;;;;;2.57;2.37;;;20.80;33.00;;;;;;5034841;28;20425;-74
2023/02/10 10:23:54;;;;;;;2.43;1.70;;;21.10;32.40;;;;;;5035041;28;20418;-74
2023/02/10 10:26:38;;;;;;;3.33;2.60;;;21.40;31.60;;;;;;5034267;28;20504;-75
2023/02/10 10:29:20;;;;;;;2.60;1.17;;;21.50;31.60;;;;;;5033863;28;20390;-73
2023/02/10 10:31:48;;;;;;;1.70;1.60;;;21.40;31.80;;;;;;5033567;28;20432;-72
2023/02/10 10:34:17;;;;;;;4.00;1.70;;;21.10;32.10;;;;;;5034535;28;20806;-71
2023/02/10 10:36:53;;;;;;;2.37;2.17;;;21.00;32.80;;;;;;5033465;28;20402;-72
2023/02/10 10:39:37;;;;;;;3.13;1.40;;;20.80;33.00;;;;;;5034730;28;20754;-72
2023/02/10 10:42:19;;;;;;;1.20;1.20;;;20.60;33.50;;;;;;5034917;28;20832;-74
2023/02/10 10:44:48;;;;;;;1.50;1.40;;;19.80;32.40;;;;;;5034255;28;20379;-72
2023/02/10 10:47:38;;;;;;;3.40;1.73;;;18.90;32.70;;;;;;5033972;28;20443;-73
2023/02/10 10:50:05;;;;;;;2.70;1.73;;;17.80;33.90;;;;;;5034142;28;20429;-71
2023/02/10 10:52:36;;;;;;;1.70;1.60;;;16.50;34.80;;;;;;5033266;28;20409;-72
2023/02/10 10:55:08;;;;;;;1.20;1.10;;;16.20;35.30;;;;;;5033740;28;20428;-71
2023/02/10 10:57:34;;;;;;;1.33;1.23;;;16.00;34.70;;;;;;5033890;28;20431;-73
2023/02/10 11:00:13;;;;;;;7.50;1.27;;;15.30;35.40;;;;;;5034098;28;20398;-73
2023/02/10 11:02:39;;;;;;;2.80;1.40;;;14.30;36.40;;;;;;5033889;28;20389;-72
2023/02/10 11:05:12;;;;;;;2.57;1.60;;;13.60;37.60;;;;;;5033788;28;20465;-73
2023/02/10 11:07:40;;;;;;;2.33;2.13;;;13.30;38.40;;;;;;5033952;28;20249;-72
2023/02/10 11:10:19;;;;;;;1.63;1.33;;;12.80;38.60;;;;;;5033588;28;20402;-71
2023/02/10 11:12:46;;;;;;;2.20;2.00;;;12.30;39.20;;;;;;5033356;28;20862;-73
2023/02/10 11:15:39;;;;;;;3.10;2.60;;;11.70;40.10;;;;;;5031427;28;20437;-73
2023/02/10 11:18:13;;;;;;;2.00;1.80;;;11.20;40.90;;;;;;5032938;28;20437;-72
2023/02/10 11:20:39;;;;;;;2.50;1.80;;;11.00;41.70;;;;;;5033309;28;20486;-72
2023/02/10 11:23:16;;;;;;;1.17;1.17;;;10.40;42.50;;;;;;5033481;28;20632;-72
2023/02/10 11:25:47;;;;;;;3.03;1.60;;;9.90;44.70;;;;;;5033432;28;20488;-72
2023/02/10 11:28:21;;;;;;;10.55;1.83;;;9.60;45.40;;;;;;5033416;28;20241;-73
2023/02/10 11:30:53;;;;;;;2.58;2.40;;;9.60;45.80;;;;;;5033254;28;20562;-73
2023/02/10 11:33:25;;;;;;;6.25;1.73;;;9.40;46.00;;;;;;5033542;28;20206;-71
2023/02/10 11:36:13;;;;;;;3.20;1.85;;;9.40;46.50;;;;;;5033256;28;20163;-71
2023/02/10 11:38:40;;;;;;;2.05;1.95;;;9.40;47.20;;;;;;5033411;28;20254;-70
2023/02/10 11:41:09;;;;;;;5.22;3.03;;;9.30;47.20;;;;;;5036524;28;20652;-73
2023/02/10 11:43:46;;;;;;;2.70;1.20;;;9.10;47.20;;;;;;5037540;28;20178;-73
2023/02/10 11:46:29;;;;;;;4.65;3.47;;;8.90;47.70;;;;;;5036658;28;20175;-73
2023/02/10 11:49:00;;;;;;;1.75;1.65;;;8.80;48.60;;;;;;5036043;28;20252;-73
2023/02/10 11:51:27;;;;;;;3.75;1.70;;;8.70;48.60;;;;;;5037396;28;20185;-72
2023/02/10 11:53:54;;;;;;;3.97;2.97;;;8.50;48.60;;;;;;5037194;28;20171;-73
2023/02/10 11:59:47;;;;;;;2.97;2.72;;;8.40;49.50;;;;;;5037391;28;20205;-73
2023/02/10 12:02:27;;;;;;;4.72;4.22;;;8.10;50.20;;;;;;5037248;28;20556;-71
2023/02/10 12:05:44;;;;;;;3.35;3.05;;;8.10;51.20;;;;;;5037009;28;20174;-72
2023/02/10 12:08:47;;;;;;;7.75;2.67;;;8.00;50.60;;;;;;5027797;28;20233;-73
2023/02/10 12:11:31;;;;;;;2.00;1.90;;;8.00;51.00;;;;;;5037044;28;20716;-71
2023/02/10 12:14:09;;;;;;;4.45;2.55;;;8.00;50.90;;;;;;5036931;28;20620;-73
2023/02/10 12:16:48;;;;;;;2.67;2.47;;;8.00;50.80;;;;;;5036764;28;20270;-73
2023/02/10 12:19:43;;;;;;;3.60;3.35;;;8.20;51.00;;;;;;5037001;28;20177;-72
2023/02/10 12:22:47;;;;;;;3.28;3.08;;;8.20;50.70;;;;;;5017533;28;20549;-70
2023/02/10 12:25:38;;;;;;;0.68;0.65;;;7.90;51.70;;;;;;5036836;28;20202;-72
2023/02/10 12:28:13;;;;;;;2.80;2.15;;;7.90;52.30;;;;;;5036630;28;20210;-72
2023/02/10 12:31:22;;;;;;;4.40;3.08;;;8.00;52.10;;;;;;5036733;28;20195;-73
2023/02/10 12:34:18;;;;;;;2.67;1.58;;;7.90;52.00;;;;;;5014964;28;20701;-72
2023/02/10 12:37:04;;;;;;;2.05;1.92;;;7.90;52.60;;;;;;5036358;28;20261;-72
2023/02/10 12:39:49;;;;;;;3.42;3.13;;;7.80;53.00;;;;;;5036696;28;20178;-71
2023/02/10 12:42:56;;;;;;;6.32;3.67;;;7.70;53.30;;;;;;5036366;28;20245;-72
2023/02/10 12:45:28;;;;;;;2.20;2.08;;;7.70;53.60;;;;;;5034721;28;20185;-73
2023/02/10 12:48:23;;;;;;;3.80;2.63;;;7.70;53.80;;;;;;5036278;28;20225;-71
2023/02/10 12:51:04;;;;;;;2.90;1.75;;;7.50;54.30;;;;;;5035789;28;20575;-73
2023/02/10 12:53:37;;;;;;;1.42;1.25;;;7.40;55.20;;;;;;5036293;28;20209;-71
2023/02/10 12:56:09;;;;;;;2.65;1.90;;;7.40;55.40;;;;;;5036148;28;20170;-72
2023/02/10 12:58:42;;;;;;;3.03;2.83;;;7.20;55.80;;;;;;5036545;28;20549;-70
2023/02/10 13:01:27;;;;;;;2.88;2.30;;;7.10;55.80;;;;;;5036133;28;20213;-70
2023/02/10 13:04:02;;;;;;;10.95;6.25;;;6.80;55.70;;;;;;5035914;28;20237;-70
2023/02/10 13:06:41;;;;;;;3.13;2.92;;;6.90;55.90;;;;;;5034423;28;20664;-72
2023/02/10 13:09:27;;;;;;;2.35;2.15;;;6.90;55.60;;;;;;5036089;28;20171;-73